Mactan Cebu International Airport
RPVM : now visible

Airfield :











YOU CAN JOIN US ON...

 
LOGIN :

Register | Disclaimer

   EN    FR    IT 

 









Legend :    VFR   Marginal VFR   IFR   Intensive IFR   Very Intensive IFR
Visi :
Ceiling :
>= 8 km
>= 3000ft
5 to 8 km
1000 to 3000 ft
1500m to 5 km
500 to 1000 ft
800 to 1500m
200 to 500 ft
< 800m
< 200 ft
Symbols :   Thunderstorms  Fog  Heavy snow  Heavy precipitations  Wind > 20 kt






- Airport Elevation : 31 ft
- IATA code : CEB


RPVM - Mactan Cebu International

CURRENT METAR :
  • 080700Z 06008KT 9999 FEW020 33/22 Q1010 RMK A2983

EXPIRED METARs :
  • 080600Z 07008KT 9999 FEW020 33/20 Q1010 RMK A2983
  • 080500Z 08007KT 9999 FEW020 33/21 Q1011 RMK A2985

TAF TAF RPVM
Valid from the 08 at 06:00 until the 09 at 12:00 UTC


080500Z 0806/0912 04007KT 9999 FEW020
TEMPO 0806/0813 03009KT FEW020 SCT100
TEMPO 0812/0818 08008KT FEW020 BKN100



MET'MAP, your aeronautical weather chart ! - Copyright ORBIFLY December 2007 - Disclaimer

ORBIFLY MET'MAP TEAM :

Programming & Development : Alexandra Zaïnal
Concept & original design : Baudouin d'Aumeries
Assistance for programming : Marc-Olivier Méhu
Technical & hardware support : Manuel Goepfert

Contact : metmap@orbifly.com




SOURCES & CREDITS :

   NOAA       Earth
Advisory